Hovedside
METAR-TAF:

METAR-TAF

Lufthavner :

Sandefjord lufthavn. Torp

Sandefjord, Norge

breddegrad: 59-12N, lengdegrad: 010-16E, høyde over havet: 8 m

Gjeldene værobservasjon

Denne rapporten ble laget for 11 minutter siden, klokken 11:20 UTC
Vind 3 kt fra skiftende retning
Temperatur 19°C
Luftfuktighet 52%
Trykk 1009 hPa
Sikt 10 km eller mer
Spredte skyer i en høyde av 4600 ft, Tårnskyer (cumulus).
byger på avstand

METAR: ENTO 191120Z VRB03KT 9999 VCSH SCT046TCU 19/09 Q1009 TEMPO SHRA SCT040CB

Tid: 13:31 (11:31 UTC)

Varsel

Denne rapporten ble laget for 6 timer og 31 minutter siden, klokken 05:00 UTC
Varsel gyldig fra 19. klokken 06 UTC til 20. klokken 06 UTC
Vind 5 kt fra Vest
Sikt 10 km eller mer
Få skyer i en høyde av 4000 ft
Midlertidig
fra 19. klokken 11 UTC til 19. klokken 18 UTC
Få skyer i en høyde av 3000 ft, Bygeskyer.
Brutte skyer i en høyde av 4000 ft
regnbyger,

TAF: ENTO 190500Z 1906/2006 28005KT 9999 FEW040 TEMPO 1911/1918 SHRA FEW030CB BKN040

Værobservasjoner og værvarsel for over 4000 flyplasser (METAR- og TAF-rapporter).

Tilgjengelige stasjoner er representert av de røde og gule prikkene på kartet.

Hold musepekeren over prikken for å se navnet på stasjonen.

Klikk så for å se værobservasjoner og -varsler.

For å forandre kartet kan du klikke på den grønne knappen med svart kryss for å zoome inn, på den grønne knappen med strek for å zoome ut, eller på de grønne pilene for å se tilstøtende kart.


METAR-TAF: